Karin S — V2BM6 — position and weather

sailwx.info

Track history (hours):
 
Tides and Currents Weather Stations Pressure Air Temp Water Temp Dewpoint Dewpoint Depression Visibility Wind Speed Wind Dir Waves Ship Positions

Karin S

Last reported at 2014-Jul-28 07:15 UTC. Time now 2014-Jul-28 08:18 UTC.
Position N 38°01' E 004°07'.

Length 148 m; draft 7.8 m.

Type: Ship (hazmat cat D). MMSI: 304871000.

Date/timePositionNaut miles runAvg speedWind from/ knotsBaromVisibWave heightAir tempDewpointWater temp
2014-Jul-28 07:15N 38°01' E 004°07'913.2
2014-Jul-28 06:33N 38°03' E 004°19'20113.2
2014-Jul-27 15:22N 38°36' E 008°32'1512.9
2014-Jul-27 14:11N 38°38' E 008°51'913.6
2014-Jul-27 13:31N 38°39' E 009°02'1312.3
2014-Jul-27 12:28N 38°42' E 009°19'1112.6
2014-Jul-27 11:33N 38°44' E 009°33'8611.7
2014-Jul-27 04:11N 39°17' E 011°16'811.3
2014-Jul-27 03:28N 39°20' E 011°25'1011.3
2014-Jul-27 02:33N 39°25' E 011°37'12411.0
2014-Jul-26 15:20N 40°20' E 014°01'911.8
2014-Jul-26 14:33N 40°24' E 014°12'1211.7
2014-Jul-26 13:33N 40°30' E 014°25'9 0.6
2014-Jul-26 00:26N 40°34' E 014°35'1112.5
2014-Jul-25 23:33N 40°31' E 014°21'1110.9
2014-Jul-25 22:33N 40°32' E 014°07'1312.9
2014-Jul-25 21:33N 40°44' E 014°14'7 6.2
2014-Jul-25 20:26N 40°50' E 014°17'0 0.0
2014-Jul-25 18:29N 40°50' E 014°17'0 0.0
2014-Jul-25 16:26N 40°50' E 014°17'0 0.0
2014-Jul-25 15:32N 40°50' E 014°17'0 0.0
2014-Jul-25 14:33N 40°50' E 014°17'0 0.0
2014-Jul-25 13:33N 40°50' E 014°17'4 4.1
2014-Jul-25 12:33N 40°47' E 014°15'1413.7
2014-Jul-25 11:33N 40°39' E 013°60'1514.4
2014-Jul-25 10:33N 40°40' E 013°41'1514.7
2014-Jul-25 09:33N 40°43' E 013°22'15714.1
2014-Jul-24 22:21N 42°21' E 010°37'1214.5
2014-Jul-24 21:33N 42°28' E 010°25'1414.4
2014-Jul-24 20:33N 42°38' E 010°11'1514.3
2014-Jul-24 19:32N 42°48' E 009°56'1313.8
2014-Jul-24 18:33N 42°57' E 009°43'1413.7
2014-Jul-24 17:34N 43°08' E 009°32'1514.6
2014-Jul-24 16:33N 43°22' E 009°25'1514.7
2014-Jul-24 15:34N 43°36' E 009°19'1414.3
2014-Jul-24 14:34N 43°50' E 009°13'1413.9
2014-Jul-24 13:33N 44°03' E 009°07'1414.0
2014-Jul-24 12:33N 44°16' E 009°01'9 8.8
2014-Jul-24 11:29N 44°24' E 008°54'0 0.0
2014-Jul-24 10:33N 44°24' E 008°54'0 0.0
2014-Jul-24 09:33N 44°24' E 008°54'0 0.0
2014-Jul-24 08:33N 44°24' E 008°54'0 0.0
2014-Jul-24 07:33N 44°24' E 008°54'1 1.0
2014-Jul-24 06:33N 44°24' E 008°55'3 3.2
2014-Jul-24 05:33N 44°21' E 008°56'2 2.0
2014-Jul-24 04:26N 44°23' E 008°55'0 0.0
2014-Jul-24 03:32N 44°23' E 008°55'0 0.0
2014-Jul-24 02:32N 44°23' E 008°55'0 0.0
2014-Jul-24 01:23N 44°23' E 008°55'0 0.0
2014-Jul-24 00:32N 44°23' E 008°55'0 0.0
2014-Jul-23 23:32N 44°23' E 008°55'0 0.0
2014-Jul-23 22:26N 44°23' E 008°55'0 0.0
2014-Jul-23 21:32N 44°23' E 008°55'0 0.0
2014-Jul-23 20:32N 44°23' E 008°55'0 0.0
2014-Jul-23 19:32N 44°23' E 008°55'0 0.0
2014-Jul-23 18:29N 44°23' E 008°55'0 0.1
2014-Jul-23 17:33N 44°23' E 008°55'0 0.1
2014-Jul-23 16:26N 44°23' E 008°55'0 0.0
2014-Jul-23 15:29N 44°23' E 008°55'0 0.0
2014-Jul-23 14:32N 44°23' E 008°55'0 0.0
2014-Jul-23 13:32N 44°23' E 008°55'0 0.0
2014-Jul-23 12:32N 44°23' E 008°55'0 0.0
2014-Jul-23 11:32N 44°23' E 008°55'0 0.0
2014-Jul-23 10:26N 44°23' E 008°55'0 0.0
2014-Jul-23 09:32N 44°23' E 008°55'0 0.0
2014-Jul-23 08:26N 44°23' E 008°55'0 0.0
2014-Jul-23 07:32N 44°23' E 008°55'0 0.0
2014-Jul-23 06:32N 44°23' E 008°55'0 0.1
2014-Jul-23 05:32N 44°23' E 008°55'1 1.3
2014-Jul-23 04:33N 44°22' E 008°55'10 9.6
2014-Jul-23 03:33N 44°14' E 009°02'1313.1
2014-Jul-23 02:33N 44°02' E 009°10'1313.2
2014-Jul-23 01:33N 43°51' E 009°21'1413.7
2014-Jul-23 00:33N 43°43' E 009°36'1313.2
2014-Jul-22 23:33N 43°34' E 009°49'1313.2
2014-Jul-22 22:33N 43°28' E 010°05'9 9.2
2014-Jul-22 21:33N 43°32' E 010°17'2 2.3
2014-Jul-22 20:31N 43°34' E 010°18'0 0.0
2014-Jul-22 19:33N 43°34' E 010°18'0 0.0
2014-Jul-22 18:33N 43°34' E 010°18'0 0.0
2014-Jul-22 17:33N 43°34' E 010°18'0 0.0
2014-Jul-22 16:33N 43°34' E 010°18'0 0.0
2014-Jul-22 15:33N 43°34' E 010°18'0 0.0
2014-Jul-22 14:32N 43°34' E 010°18'0 0.0
2014-Jul-22 13:33N 43°34' E 010°18'0 0.0
2014-Jul-22 12:33N 43°34' E 010°18'0 0.0
2014-Jul-22 11:33N 43°34' E 010°18'0 0.0
2014-Jul-22 10:33N 43°34' E 010°18'0 0.0
2014-Jul-22 09:33N 43°34' E 010°18'0 0.0
2014-Jul-22 08:33N 43°34' E 010°18'0 0.0
2014-Jul-22 07:33N 43°34' E 010°18'0 0.0
2014-Jul-22 06:33N 43°34' E 010°18'0 0.0
2014-Jul-22 05:33N 43°34' E 010°18'0 0.3
2014-Jul-22 04:34N 43°34' E 010°18'6 6.3
2014-Jul-22 03:34N 43°29' E 010°12'7 7.4
2014-Jul-22 02:33N 43°29' E 010°02'1010.4
2014-Jul-22 01:33N 43°33' E 009°49'1110.8
2014-Jul-22 00:34N 43°39' E 009°37'1110.6
2014-Jul-21 23:34N 43°45' E 009°25'1010.3
2014-Jul-21 22:34N 43°51' E 009°13'1010.3
2014-Jul-21 21:34N 43°59' E 009°03'4 4.2
2014-Jul-21 20:32N 44°02' E 008°59'0 0.8
2014-Jul-21 20:18N 44°02' E 008°59'1 0.8
2014-Jul-21 19:33N 44°01' E 008°59'1 0.7
2014-Jul-21 18:31N 44°00' E 008°60'1 0.9
2014-Jul-21 17:31N 43°59' E 008°60'1 0.9
2014-Jul-21 16:31N 43°59' E 009°00'1 1.0
2014-Jul-21 15:31N 43°57' E 009°00'1 1.0
2014-Jul-21 14:33N 43°57' E 008°60'0 0.2
2014-Jul-21 13:33N 43°57' E 008°60'10 9.7
2014-Jul-21 12:33N 44°03' E 008°50'10 9.7
2014-Jul-21 11:33N 44°09' E 008°39'1110.3
2014-Jul-21 10:29N 44°16' E 008°27'1 0.6
2014-Jul-21 09:24N 44°16' E 008°27'0 0.0
2014-Jul-21 08:04N 44°16' E 008°27'0 0.0
2014-Jul-21 07:25N 44°16' E 008°27'0 0.0
2014-Jul-21 05:31N 44°16' E 008°27'1 1.4
2014-Jul-21 04:31N 44°16' E 008°29'5 5.5
2014-Jul-21 03:32N 44°10' E 008°30'1110.9
2014-Jul-21 02:33N 43°59' E 008°30'1111.0
2014-Jul-21 01:33N 43°52' E 008°19'3811.3
2014-Jul-20 22:12N 43°28' E 007°38'1312.0
2014-Jul-20 21:10N 43°20' E 007°25'912.3
2014-Jul-20 20:24N 43°14' E 007°15'1012.3
2014-Jul-20 19:33N 43°08' E 007°04'1212.1
2014-Jul-20 18:33N 42°60' E 006°51'1211.7
2014-Jul-20 17:33N 42°52' E 006°39'1111.1
2014-Jul-20 16:33N 42°46' E 006°26'2311.5
2014-Jul-20 14:32N 42°31' E 006°02'1211.7
2014-Jul-20 13:33N 42°24' E 005°50'1312.0
2014-Jul-20 12:30N 42°16' E 005°36'4214.2
2014-Jul-20 09:33N 41°50' E 004°52'20 9.5
2014-Jul-20 07:25N 41°37' E 004°32'1113.0
2014-Jul-20 06:33N 41°30' E 004°20'1512.8
2014-Jul-20 05:25N 41°21' E 004°05'1012.0
2014-Jul-20 04:33N 41°14' E 003°54'1212.3
2014-Jul-20 03:33N 41°07' E 003°41'1212.3
2014-Jul-20 02:33N 40°59' E 003°29'1212.2
2014-Jul-20 01:33N 40°51' E 003°16'1212.3
2014-Jul-20 00:33N 40°44' E 003°03'1212.2
2014-Jul-19 23:33N 40°36' E 002°51'1212.1
2014-Jul-19 22:33N 40°28' E 002°38'1212.4
2014-Jul-19 21:33N 40°21' E 002°26'1312.8
2014-Jul-19 20:33N 40°13' E 002°13'1312.7
2014-Jul-19 19:33N 40°04' E 001°60'1312.6
2014-Jul-19 18:33N 39°55' E 001°49'1212.4
2014-Jul-19 17:33N 39°45' E 001°39'1212.3
2014-Jul-19 16:33N 39°36' E 001°29'1312.4
2014-Jul-19 15:32N 39°27' E 001°18'1212.5
2014-Jul-19 14:33N 39°18' E 001°07'1312.6
2014-Jul-19 13:33N 39°09' E 000°55'1210.3
2014-Jul-19 12:23N 38°60' E 000°45'0 0.1
2014-Jul-19 11:11N 38°60' E 000°45'1 0.3
2014-Jul-19 08:23N 39°01' E 000°45'22 5.3
2014-Jul-19 04:13N 38°40' E 000°35'1111.8
2014-Jul-19 03:18N 38°31' E 000°26'911.7
2014-Jul-19 02:33N 38°24' E 000°19'1212.1
2014-Jul-19 01:33N 38°15' E 000°10'1916.6
2014-Jul-19 00:26N 37°60' W 000°04'6 6.9
2014-Jul-18 23:33N 37°55' W 000°09'1716.6
2014-Jul-18 22:31N 37°42' W 000°22'8 7.9
2014-Jul-18 21:33N 37°36' W 000°28'3712.1
2014-Jul-18 18:31N 37°10' W 001°02'4112.2
2014-Jul-18 15:09N 36°43' W 001°40'  
Track history (hours):
 
Tides and Currents Weather Stations Pressure Air Temp Water Temp Dewpoint Dewpoint Depression Visibility Wind Speed Wind Dir Waves Ship Positions

Karin S

Last reported at 2014-Jul-28 07:15 UTC. Time now 2014-Jul-28 08:18 UTC.
Position N 38°01' E 004°07'.

Length 148 m; draft 7.8 m.

Type: Ship (hazmat cat D). MMSI: 304871000.

Date/timePositionNaut miles runAvg speedWind from/ knotsBaromVisibWave heightAir tempDewpointWater temp
2014-Jul-28 07:15N 38°01' E 004°07'913.2
2014-Jul-28 06:33N 38°03' E 004°19'20113.2
2014-Jul-27 15:22N 38°36' E 008°32'1512.9
2014-Jul-27 14:11N 38°38' E 008°51'913.6
2014-Jul-27 13:31N 38°39' E 009°02'1312.3
2014-Jul-27 12:28N 38°42' E 009°19'1112.6
2014-Jul-27 11:33N 38°44' E 009°33'8611.7
2014-Jul-27 04:11N 39°17' E 011°16'811.3
2014-Jul-27 03:28N 39°20' E 011°25'1011.3
2014-Jul-27 02:33N 39°25' E 011°37'12411.0
2014-Jul-26 15:20N 40°20' E 014°01'911.8
2014-Jul-26 14:33N 40°24' E 014°12'1211.7
2014-Jul-26 13:33N 40°30' E 014°25'9 0.6
2014-Jul-26 00:26N 40°34' E 014°35'1112.5
2014-Jul-25 23:33N 40°31' E 014°21'1110.9
2014-Jul-25 22:33N 40°32' E 014°07'1312.9
2014-Jul-25 21:33N 40°44' E 014°14'7 6.2
2014-Jul-25 20:26N 40°50' E 014°17'0 0.0
2014-Jul-25 18:29N 40°50' E 014°17'0 0.0
2014-Jul-25 16:26N 40°50' E 014°17'0 0.0
2014-Jul-25 15:32N 40°50' E 014°17'0 0.0
2014-Jul-25 14:33N 40°50' E 014°17'0 0.0
2014-Jul-25 13:33N 40°50' E 014°17'4 4.1
2014-Jul-25 12:33N 40°47' E 014°15'1413.7
2014-Jul-25 11:33N 40°39' E 013°60'1514.4
2014-Jul-25 10:33N 40°40' E 013°41'1514.7
2014-Jul-25 09:33N 40°43' E 013°22'15714.1
2014-Jul-24 22:21N 42°21' E 010°37'1214.5
2014-Jul-24 21:33N 42°28' E 010°25'1414.4
2014-Jul-24 20:33N 42°38' E 010°11'1514.3
2014-Jul-24 19:32N 42°48' E 009°56'1313.8
2014-Jul-24 18:33N 42°57' E 009°43'1413.7
2014-Jul-24 17:34N 43°08' E 009°32'1514.6
2014-Jul-24 16:33N 43°22' E 009°25'1514.7
2014-Jul-24 15:34N 43°36' E 009°19'1414.3
2014-Jul-24 14:34N 43°50' E 009°13'1413.9
2014-Jul-24 13:33N 44°03' E 009°07'1414.0
2014-Jul-24 12:33N 44°16' E 009°01'9 8.8
2014-Jul-24 11:29N 44°24' E 008°54'0 0.0
2014-Jul-24 10:33N 44°24' E 008°54'0 0.0
2014-Jul-24 09:33N 44°24' E 008°54'0 0.0
2014-Jul-24 08:33N 44°24' E 008°54'0 0.0
2014-Jul-24 07:33N 44°24' E 008°54'1 1.0
2014-Jul-24 06:33N 44°24' E 008°55'3 3.2
2014-Jul-24 05:33N 44°21' E 008°56'2 2.0
2014-Jul-24 04:26N 44°23' E 008°55'0 0.0
2014-Jul-24 03:32N 44°23' E 008°55'0 0.0
2014-Jul-24 02:32N 44°23' E 008°55'0 0.0
2014-Jul-24 01:23N 44°23' E 008°55'0 0.0
2014-Jul-24 00:32N 44°23' E 008°55'0 0.0
2014-Jul-23 23:32N 44°23' E 008°55'0 0.0
2014-Jul-23 22:26N 44°23' E 008°55'0 0.0
2014-Jul-23 21:32N 44°23' E 008°55'0 0.0
2014-Jul-23 20:32N 44°23' E 008°55'0 0.0
2014-Jul-23 19:32N 44°23' E 008°55'0 0.0
2014-Jul-23 18:29N 44°23' E 008°55'0 0.1
2014-Jul-23 17:33N 44°23' E 008°55'0 0.1
2014-Jul-23 16:26N 44°23' E 008°55'0 0.0
2014-Jul-23 15:29N 44°23' E 008°55'0 0.0
2014-Jul-23 14:32N 44°23' E 008°55'0 0.0
2014-Jul-23 13:32N 44°23' E 008°55'0 0.0
2014-Jul-23 12:32N 44°23' E 008°55'0 0.0
2014-Jul-23 11:32N 44°23' E 008°55'0 0.0
2014-Jul-23 10:26N 44°23' E 008°55'0 0.0
2014-Jul-23 09:32N 44°23' E 008°55'0 0.0
2014-Jul-23 08:26N 44°23' E 008°55'0 0.0
2014-Jul-23 07:32N 44°23' E 008°55'0 0.0
2014-Jul-23 06:32N 44°23' E 008°55'0 0.1
2014-Jul-23 05:32N 44°23' E 008°55'1 1.3
2014-Jul-23 04:33N 44°22' E 008°55'10 9.6
2014-Jul-23 03:33N 44°14' E 009°02'1313.1
2014-Jul-23 02:33N 44°02' E 009°10'1313.2
2014-Jul-23 01:33N 43°51' E 009°21'1413.7
2014-Jul-23 00:33N 43°43' E 009°36'1313.2
2014-Jul-22 23:33N 43°34' E 009°49'1313.2
2014-Jul-22 22:33N 43°28' E 010°05'9 9.2
2014-Jul-22 21:33N 43°32' E 010°17'2 2.3
2014-Jul-22 20:31N 43°34' E 010°18'0 0.0
2014-Jul-22 19:33N 43°34' E 010°18'0 0.0
2014-Jul-22 18:33N 43°34' E 010°18'0 0.0
2014-Jul-22 17:33N 43°34' E 010°18'0 0.0
2014-Jul-22 16:33N 43°34' E 010°18'0 0.0
2014-Jul-22 15:33N 43°34' E 010°18'0 0.0
2014-Jul-22 14:32N 43°34' E 010°18'0 0.0
2014-Jul-22 13:33N 43°34' E 010°18'0 0.0
2014-Jul-22 12:33N 43°34' E 010°18'0 0.0
2014-Jul-22 11:33N 43°34' E 010°18'0 0.0
2014-Jul-22 10:33N 43°34' E 010°18'0 0.0
2014-Jul-22 09:33N 43°34' E 010°18'0 0.0
2014-Jul-22 08:33N 43°34' E 010°18'0 0.0
2014-Jul-22 07:33N 43°34' E 010°18'0 0.0
2014-Jul-22 06:33N 43°34' E 010°18'0 0.0
2014-Jul-22 05:33N 43°34' E 010°18'0 0.3
2014-Jul-22 04:34N 43°34' E 010°18'6 6.3
2014-Jul-22 03:34N 43°29' E 010°12'7 7.4
2014-Jul-22 02:33N 43°29' E 010°02'1010.4
2014-Jul-22 01:33N 43°33' E 009°49'1110.8
2014-Jul-22 00:34N 43°39' E 009°37'1110.6
2014-Jul-21 23:34N 43°45' E 009°25'1010.3
2014-Jul-21 22:34N 43°51' E 009°13'1010.3
2014-Jul-21 21:34N 43°59' E 009°03'4 4.2
2014-Jul-21 20:32N 44°02' E 008°59'0 0.8
2014-Jul-21 20:18N 44°02' E 008°59'1 0.8
2014-Jul-21 19:33N 44°01' E 008°59'1 0.7
2014-Jul-21 18:31N 44°00' E 008°60'1 0.9
2014-Jul-21 17:31N 43°59' E 008°60'1 0.9
2014-Jul-21 16:31N 43°59' E 009°00'1 1.0
2014-Jul-21 15:31N 43°57' E 009°00'1 1.0
2014-Jul-21 14:33N 43°57' E 008°60'0 0.2
2014-Jul-21 13:33N 43°57' E 008°60'10 9.7
2014-Jul-21 12:33N 44°03' E 008°50'10 9.7
2014-Jul-21 11:33N 44°09' E 008°39'1110.3
2014-Jul-21 10:29N 44°16' E 008°27'1 0.6
2014-Jul-21 09:24N 44°16' E 008°27'0 0.0
2014-Jul-21 08:04N 44°16' E 008°27'0 0.0
2014-Jul-21 07:25N 44°16' E 008°27'0 0.0
2014-Jul-21 05:31N 44°16' E 008°27'1 1.4
2014-Jul-21 04:31N 44°16' E 008°29'5 5.5
2014-Jul-21 03:32N 44°10' E 008°30'1110.9
2014-Jul-21 02:33N 43°59' E 008°30'1111.0
2014-Jul-21 01:33N 43°52' E 008°19'3811.3
2014-Jul-20 22:12N 43°28' E 007°38'1312.0
2014-Jul-20 21:10N 43°20' E 007°25'912.3
2014-Jul-20 20:24N 43°14' E 007°15'1012.3
2014-Jul-20 19:33N 43°08' E 007°04'1212.1
2014-Jul-20 18:33N 42°60' E 006°51'1211.7
2014-Jul-20 17:33N 42°52' E 006°39'1111.1
2014-Jul-20 16:33N 42°46' E 006°26'2311.5
2014-Jul-20 14:32N 42°31' E 006°02'1211.7
2014-Jul-20 13:33N 42°24' E 005°50'1312.0
2014-Jul-20 12:30N 42°16' E 005°36'4214.2
2014-Jul-20 09:33N 41°50' E 004°52'20 9.5
2014-Jul-20 07:25N 41°37' E 004°32'1113.0
2014-Jul-20 06:33N 41°30' E 004°20'1512.8
2014-Jul-20 05:25N 41°21' E 004°05'1012.0
2014-Jul-20 04:33N 41°14' E 003°54'1212.3
2014-Jul-20 03:33N 41°07' E 003°41'1212.3
2014-Jul-20 02:33N 40°59' E 003°29'1212.2
2014-Jul-20 01:33N 40°51' E 003°16'1212.3
2014-Jul-20 00:33N 40°44' E 003°03'1212.2
2014-Jul-19 23:33N 40°36' E 002°51'1212.1
2014-Jul-19 22:33N 40°28' E 002°38'1212.4
2014-Jul-19 21:33N 40°21' E 002°26'1312.8
2014-Jul-19 20:33N 40°13' E 002°13'1312.7
2014-Jul-19 19:33N 40°04' E 001°60'1312.6
2014-Jul-19 18:33N 39°55' E 001°49'1212.4
2014-Jul-19 17:33N 39°45' E 001°39'1212.3
2014-Jul-19 16:33N 39°36' E 001°29'1312.4
2014-Jul-19 15:32N 39°27' E 001°18'1212.5
2014-Jul-19 14:33N 39°18' E 001°07'1312.6
2014-Jul-19 13:33N 39°09' E 000°55'1210.3
2014-Jul-19 12:23N 38°60' E 000°45'0 0.1
2014-Jul-19 11:11N 38°60' E 000°45'1 0.3
2014-Jul-19 08:23N 39°01' E 000°45'22 5.3
2014-Jul-19 04:13N 38°40' E 000°35'1111.8
2014-Jul-19 03:18N 38°31' E 000°26'911.7
2014-Jul-19 02:33N 38°24' E 000°19'1212.1
2014-Jul-19 01:33N 38°15' E 000°10'1916.6
2014-Jul-19 00:26N 37°60' W 000°04'6 6.9
2014-Jul-18 23:33N 37°55' W 000°09'1716.6
2014-Jul-18 22:31N 37°42' W 000°22'8 7.9
2014-Jul-18 21:33N 37°36' W 000°28'3712.1
2014-Jul-18 18:31N 37°10' W 001°02'4112.2
2014-Jul-18 15:09N 36°43' W 001°40'  

Dump ship's entire track history